Time;durP1;ratioP1;P1;durP2;ratioP2;P2;SDS_P1;SDS_P2;PMS_P1;PMS_P2;Temp;Humidity;BMP_temperature;BMP_pressure;BME280_temperature;BME280_humidity;BME280_pressure;Samples;Min_cycle;Max_cycle;Signal;HPM_P1;HPM_P2
2023/09/28 00:02:49;;;;;;;6.25;3.15;;;18.90;99.90;;;;;;4930619;29;20043;-87
2023/09/28 00:05:15;;;;;;;4.32;2.15;;;18.80;99.90;;;;;;4944814;28;20031;-87
2023/09/28 00:07:42;;;;;;;4.38;2.85;;;18.90;99.90;;;;;;4944639;28;20028;-86
2023/09/28 00:10:11;;;;;;;6.22;2.63;;;18.80;99.90;;;;;;4947686;28;20032;-87
2023/09/28 00:12:39;;;;;;;3.95;2.38;;;18.80;99.90;;;;;;4933728;29;20067;-87
2023/09/28 00:15:06;;;;;;;5.95;2.45;;;18.80;99.90;;;;;;4953270;28;20071;-87
2023/09/28 00:17:32;;;;;;;7.22;2.50;;;18.70;99.90;;;;;;4932957;28;20048;-88
2023/09/28 00:19:58;;;;;;;5.50;2.40;;;18.70;99.90;;;;;;4932598;29;20035;-87
2023/09/28 00:22:24;;;;;;;3.58;2.05;;;18.60;99.90;;;;;;4932969;29;20028;-87
2023/09/28 00:24:49;;;;;;;5.13;2.42;;;18.60;99.90;;;;;;4924284;29;20036;-87
2023/09/28 00:27:15;;;;;;;6.18;2.72;;;18.60;99.90;;;;;;4948398;29;20046;-87
2023/09/28 00:29:41;;;;;;;4.35;1.98;;;18.50;99.90;;;;;;4933843;29;20031;-87
2023/09/28 00:32:07;;;;;;;5.80;2.22;;;18.50;99.90;;;;;;4929870;29;20566;-87
2023/09/28 00:34:33;;;;;;;3.78;2.30;;;18.40;99.90;;;;;;4932329;29;20404;-87
2023/09/28 00:36:59;;;;;;;4.60;2.17;;;18.40;99.90;;;;;;4927432;29;20039;-87
2023/09/28 00:39:24;;;;;;;6.47;2.38;;;18.40;99.90;;;;;;4936397;29;20035;-88
2023/09/28 00:41:50;;;;;;;4.65;2.17;;;18.40;99.90;;;;;;4936630;29;20028;-88
2023/09/28 00:44:15;;;;;;;9.32;2.50;;;18.40;99.90;;;;;;4936906;29;20047;-88
2023/09/28 00:46:42;;;;;;;5.13;2.38;;;18.30;99.90;;;;;;4950135;28;20031;-87
2023/09/28 00:49:12;;;;;;;5.03;2.70;;;18.30;99.90;;;;;;4936574;29;20122;-87
2023/09/28 00:51:39;;;;;;;4.75;2.63;;;18.30;99.90;;;;;;4936365;29;20560;-87
2023/09/28 00:54:11;;;;;;;5.50;2.60;;;18.20;99.90;;;;;;4941447;28;20396;-88
2023/09/28 00:56:37;;;;;;;;;;;18.20;99.90;;;;;;4936811;29;20032;-88
2023/09/28 00:59:02;;;;;;;6.28;2.90;;;18.10;99.90;;;;;;4935858;29;19915;-87
2023/09/28 01:01:31;;;;;;;4.40;2.78;;;18.00;99.90;;;;;;4936729;29;20070;-88
2023/09/28 01:04:05;;;;;;;6.43;2.25;;;18.00;99.90;;;;;;4935970;29;20044;-88
2023/09/28 01:06:33;;;;;;;5.20;2.15;;;18.00;99.90;;;;;;4951080;28;20127;-88
2023/09/28 01:08:59;;;;;;;4.93;2.55;;;17.90;99.90;;;;;;4937131;29;20059;-87
2023/09/28 01:11:25;;;;;;;4.72;2.17;;;17.80;99.90;;;;;;4932226;29;20114;-87
2023/09/28 01:13:52;;;;;;;4.65;2.70;;;17.80;99.90;;;;;;4931914;29;20452;-87
2023/09/28 01:16:19;;;;;;;4.05;2.10;;;17.80;99.90;;;;;;4933559;28;20034;-88
2023/09/28 01:18:45;;;;;;;4.07;2.15;;;17.70;99.90;;;;;;4952248;28;20031;-87
2023/09/28 01:21:11;;;;;;;5.03;3.28;;;17.70;99.90;;;;;;4936208;29;20024;-88
2023/09/28 01:23:38;;;;;;;4.60;2.47;;;17.60;99.90;;;;;;4937109;29;20110;-87
2023/09/28 01:26:03;;;;;;;3.53;2.45;;;17.60;99.90;;;;;;4951800;28;20035;-87
2023/09/28 01:28:29;;;;;;;5.13;2.90;;;17.60;99.90;;;;;;4937318;29;20094;-88
2023/09/28 01:30:55;;;;;;;3.85;2.70;;;17.50;99.90;;;;;;4935541;29;20027;-87
2023/09/28 01:33:20;;;;;;;5.10;2.58;;;17.50;99.90;;;;;;4933129;29;20036;-87
2023/09/28 01:35:46;;;;;;;5.30;2.78;;;17.50;99.90;;;;;;4936931;29;20035;-87
2023/09/28 01:38:38;;;;;;;4.25;2.72;;;17.40;99.90;;;;;;4930648;29;20035;-87
2023/09/28 01:41:04;;;;;;;6.72;3.75;;;17.40;99.90;;;;;;4950799;28;20046;-88
2023/09/28 01:43:29;;;;;;;5.45;2.70;;;17.30;99.90;;;;;;4934323;29;20044;-88
2023/09/28 01:45:55;;;;;;;8.95;2.83;;;17.20;99.90;;;;;;4936107;29;20030;-87
2023/09/28 01:48:21;;;;;;;5.45;2.90;;;17.20;99.90;;;;;;4932110;29;20029;-87
2023/09/28 01:50:48;;;;;;;4.93;3.22;;;17.20;99.90;;;;;;4928736;29;20388;-87
2023/09/28 01:53:13;;;;;;;5.30;3.22;;;17.20;99.90;;;;;;4935440;29;20028;-88
2023/09/28 01:55:39;;;;;;;6.55;2.90;;;17.10;99.90;;;;;;4936224;29;20095;-87
2023/09/28 01:58:07;;;;;;;3.50;2.47;;;17.10;99.90;;;;;;4932985;29;20059;-88
2023/09/28 02:00:34;;;;;;;6.40;3.15;;;17.00;99.90;;;;;;4949798;28;20020;-87
2023/09/28 02:03:02;;;;;;;4.80;2.88;;;17.00;99.90;;;;;;4938678;29;20571;-88
2023/09/28 02:05:32;;;;;;;5.95;3.20;;;16.90;99.90;;;;;;4948734;28;20086;-87
2023/09/28 02:07:58;;;;;;;5.70;3.35;;;16.90;99.90;;;;;;4934931;29;20094;-88
2023/09/28 02:10:24;;;;;;;3.83;3.03;;;16.80;99.90;;;;;;4934902;29;20366;-88
2023/09/28 02:12:50;;;;;;;3.25;2.90;;;16.80;99.90;;;;;;4934523;29;20039;-87
2023/09/28 02:15:16;;;;;;;6.43;2.88;;;16.80;99.90;;;;;;4933648;29;20059;-87
2023/09/28 02:17:46;;;;;;;5.78;3.25;;;16.80;99.90;;;;;;4927642;29;20550;-87
2023/09/28 02:20:16;;;;;;;5.63;3.35;;;16.70;99.90;;;;;;4944048;28;20510;-87
2023/09/28 02:22:46;;;;;;;4.53;2.78;;;16.70;99.90;;;;;;4936492;29;20036;-87
2023/09/28 02:25:18;;;;;;;6.28;3.00;;;16.70;99.90;;;;;;4935810;29;20070;-87
2023/09/28 02:27:48;;;;;;;4.68;2.92;;;16.70;99.90;;;;;;4936054;29;20388;-87
2023/09/28 02:30:17;;;;;;;6.82;3.22;;;16.60;99.90;;;;;;4935443;29;20032;-88
2023/09/28 02:32:46;;;;;;;8.07;3.45;;;16.60;99.90;;;;;;4950744;28;20042;-88
2023/09/28 02:35:14;;;;;;;7.13;3.42;;;16.60;99.90;;;;;;4935370;29;20024;-88
2023/09/28 02:37:41;;;;;;;5.10;2.95;;;16.50;99.90;;;;;;4934399;29;20034;-87
2023/09/28 02:40:09;;;;;;;4.22;3.35;;;16.50;99.90;;;;;;4949078;28;20028;-87
2023/09/28 02:42:34;;;;;;;6.35;3.63;;;16.40;99.90;;;;;;4935934;29;20039;-87
2023/09/28 02:45:00;;;;;;;4.45;2.92;;;16.50;99.90;;;;;;4934696;29;20038;-87
2023/09/28 02:47:27;;;;;;;8.10;3.35;;;16.40;99.90;;;;;;4932286;29;20032;-87
2023/09/28 02:49:54;;;;;;;6.28;3.45;;;16.40;99.90;;;;;;4922177;29;20047;-87
2023/09/28 02:52:20;;;;;;;5.03;3.40;;;16.40;99.90;;;;;;4935129;29;20023;-87
2023/09/28 02:54:46;;;;;;;6.82;3.75;;;16.30;99.90;;;;;;4933423;29;20079;-87
2023/09/28 02:57:13;;;;;;;7.63;3.70;;;16.30;99.90;;;;;;4934114;29;20023;-88
2023/09/28 02:59:38;;;;;;;5.68;3.40;;;16.30;99.90;;;;;;4934104;29;20028;-88
2023/09/28 03:02:05;;;;;;;4.95;3.20;;;16.20;99.90;;;;;;4934139;29;20145;-88
2023/09/28 03:04:34;;;;;;;7.75;3.75;;;16.30;99.90;;;;;;4950253;28;20050;-88
2023/09/28 03:07:00;;;;;;;6.10;3.83;;;16.30;99.90;;;;;;4927865;29;20032;-87
2023/09/28 03:09:27;;;;;;;6.88;4.20;;;16.30;99.90;;;;;;4950091;29;20078;-87
2023/09/28 03:11:54;;;;;;;7.10;3.83;;;16.30;99.90;;;;;;4947452;28;20511;-87
2023/09/28 03:14:20;;;;;;;7.65;4.18;;;16.30;99.90;;;;;;4934122;29;20056;-88
2023/09/28 03:16:45;;;;;;;6.57;3.47;;;16.30;99.90;;;;;;4933898;28;20127;-88
2023/09/28 03:19:11;;;;;;;6.25;3.55;;;16.30;99.90;;;;;;4934393;29;20119;-88
2023/09/28 03:21:37;;;;;;;7.10;4.20;;;16.20;99.90;;;;;;4934355;29;20102;-87
2023/09/28 03:24:03;;;;;;;7.10;3.28;;;16.30;99.90;;;;;;4933260;29;20036;-87
2023/09/28 03:26:30;;;;;;;8.95;3.92;;;16.20;99.90;;;;;;4935073;29;20024;-87
2023/09/28 03:28:59;;;;;;;7.20;4.35;;;16.30;99.90;;;;;;4948981;28;20102;-87
2023/09/28 03:31:29;;;;;;;8.30;4.32;;;16.30;99.90;;;;;;4933791;29;20039;-88
2023/09/28 03:33:55;;;;;;;5.43;4.22;;;16.20;99.90;;;;;;4933725;29;20031;-87
2023/09/28 03:36:21;;;;;;;6.38;4.60;;;16.20;99.90;;;;;;4926834;28;20028;-87
2023/09/28 03:38:47;;;;;;;7.80;4.13;;;16.20;99.90;;;;;;4948299;28;20039;-87
2023/09/28 03:41:13;;;;;;;7.93;4.47;;;16.20;99.90;;;;;;4926918;29;20031;-88
2023/09/28 03:43:39;;;;;;;5.75;3.53;;;16.20;99.90;;;;;;4931518;29;20039;-88
2023/09/28 03:46:05;;;;;;;6.80;4.50;;;16.20;99.90;;;;;;4929368;29;20028;-87
2023/09/28 03:48:30;;;;;;;6.20;4.30;;;16.20;99.90;;;;;;4928471;29;20066;-86
2023/09/28 03:50:56;;;;;;;5.22;3.97;;;16.20;99.90;;;;;;4933555;29;20079;-87
2023/09/28 03:53:22;;;;;;;7.43;4.13;;;16.20;99.90;;;;;;4933288;29;20027;-87
2023/09/28 03:55:49;;;;;;;6.35;3.83;;;16.20;99.90;;;;;;4948549;28;20024;-87
2023/09/28 03:58:17;;;;;;;5.05;4.00;;;16.20;99.90;;;;;;4928926;29;20023;-88
2023/09/28 04:00:43;;;;;;;5.60;4.15;;;16.10;99.90;;;;;;4930035;29;20403;-86
2023/09/28 04:03:10;;;;;;;6.72;4.40;;;16.20;99.90;;;;;;4932814;29;20040;-87
2023/09/28 04:05:35;;;;;;;6.53;4.20;;;16.20;99.90;;;;;;4958302;28;20440;-88
2023/09/28 04:08:01;;;;;;;8.80;4.30;;;16.10;99.90;;;;;;4933064;29;20031;-88
2023/09/28 04:10:27;;;;;;;6.63;4.25;;;16.10;99.90;;;;;;4932750;29;20737;-88
2023/09/28 04:12:53;;;;;;;8.05;4.20;;;16.10;99.90;;;;;;4927441;29;20031;-88
2023/09/28 04:15:19;;;;;;;10.15;4.95;;;16.10;99.90;;;;;;4950299;28;20114;-88
2023/09/28 04:17:44;;;;;;;6.30;4.70;;;16.20;99.90;;;;;;4942023;29;20044;-88
2023/09/28 04:20:10;;;;;;;7.22;5.07;;;16.10;99.90;;;;;;4943895;29;20023;-87
2023/09/28 04:22:36;;;;;;;6.93;4.10;;;16.00;99.90;;;;;;4937081;29;20186;-88
2023/09/28 04:25:03;;;;;;;7.10;4.35;;;16.00;99.90;;;;;;4933989;29;20126;-88
2023/09/28 04:27:29;;;;;;;9.48;4.97;;;16.00;99.90;;;;;;4953596;28;20027;-88
2023/09/28 04:29:55;;;;;;;7.72;4.93;;;16.00;99.90;;;;;;4937021;29;20023;-88
2023/09/28 04:32:20;;;;;;;8.63;5.35;;;16.00;99.90;;;;;;4952474;28;20381;-89
2023/09/28 04:34:46;;;;;;;5.85;4.55;;;15.90;99.90;;;;;;4935353;29;20063;-87
2023/09/28 04:37:12;;;;;;;6.30;5.18;;;15.90;99.90;;;;;;4933952;29;20024;-87
2023/09/28 04:39:37;;;;;;;6.40;4.78;;;15.90;99.90;;;;;;4935314;29;20043;-87
2023/09/28 04:42:04;;;;;;;7.55;4.70;;;15.80;99.90;;;;;;4936480;29;20023;-88
2023/09/28 04:44:30;;;;;;;7.95;4.95;;;15.80;99.90;;;;;;4935184;29;20046;-88
2023/09/28 04:46:56;;;;;;;7.85;5.25;;;15.70;99.90;;;;;;4946453;28;20027;-88
2023/09/28 04:49:21;;;;;;;8.40;5.72;;;15.70;99.90;;;;;;4960374;28;20039;-88
2023/09/28 04:51:47;;;;;;;9.00;5.65;;;15.70;99.90;;;;;;4952610;28;20562;-89
2023/09/28 04:54:14;;;;;;;9.73;5.88;;;15.70;99.90;;;;;;4938287;29;20086;-89
2023/09/28 04:56:41;;;;;;;8.90;5.65;;;15.60;99.90;;;;;;4926439;29;20476;-88
2023/09/28 04:59:06;;;;;;;8.73;5.68;;;15.50;99.90;;;;;;4933576;28;20039;-89
2023/09/28 05:01:32;;;;;;;11.75;5.47;;;15.60;99.90;;;;;;4944949;28;20036;-89
2023/09/28 05:03:57;;;;;;;10.38;5.65;;;15.50;99.90;;;;;;4934276;29;20515;-89
2023/09/28 05:06:23;;;;;;;7.65;5.45;;;15.50;99.90;;;;;;4949762;28;20036;-88
2023/09/28 05:08:49;;;;;;;10.93;5.70;;;15.50;99.90;;;;;;4927803;29;20103;-88
2023/09/28 05:11:15;;;;;;;12.00;4.75;;;15.50;99.90;;;;;;4936559;29;20480;-88
2023/09/28 05:13:42;;;;;;;10.15;5.20;;;15.50;99.90;;;;;;4943973;28;20151;-88
2023/09/28 05:16:07;;;;;;;9.93;5.28;;;15.50;99.90;;;;;;4948378;28;20062;-89
2023/09/28 05:18:33;;;;;;;7.93;5.00;;;15.60;99.90;;;;;;4938010;28;20076;-87
2023/09/28 05:20:58;;;;;;;10.93;4.75;;;15.70;99.90;;;;;;4935864;28;20515;-88
2023/09/28 05:23:25;;;;;;;10.73;6.60;;;15.70;99.90;;;;;;4943723;29;20086;-88
2023/09/28 05:25:50;;;;;;;7.50;4.82;;;15.70;99.90;;;;;;4944603;28;20111;-88
2023/09/28 05:28:16;;;;;;;9.82;4.90;;;15.70;99.90;;;;;;4947136;28;20114;-88
2023/09/28 05:30:41;;;;;;;10.35;5.78;;;15.80;99.90;;;;;;4931366;29;20111;-89
2023/09/28 05:33:07;;;;;;;11.45;6.05;;;15.80;99.90;;;;;;4932363;29;22049;-88
2023/09/28 05:35:32;;;;;;;10.77;4.88;;;15.80;99.90;;;;;;4934385;29;20032;-88
2023/09/28 05:37:58;;;;;;;7.80;5.15;;;15.80;99.90;;;;;;4960052;28;20046;-88
2023/09/28 05:40:23;;;;;;;10.63;5.55;;;15.80;99.90;;;;;;4948884;29;20043;-87
2023/09/28 05:42:49;;;;;;;11.05;5.38;;;15.70;99.90;;;;;;4940436;29;20036;-86
2023/09/28 05:45:14;;;;;;;8.00;5.43;;;15.70;99.90;;;;;;4930760;29;20031;-86
2023/09/28 05:47:40;;;;;;;9.93;5.80;;;15.70;99.90;;;;;;4936458;29;20031;-86
2023/09/28 05:50:07;;;;;;;8.82;5.65;;;15.70;99.90;;;;;;4927173;29;20128;-88
2023/09/28 05:52:33;;;;;;;13.77;6.47;;;15.70;99.90;;;;;;4948534;28;20393;-88
2023/09/28 05:54:58;;;;;;;13.48;6.28;;;15.70;99.90;;;;;;4945939;28;20035;-88
2023/09/28 05:57:24;;;;;;;8.07;5.60;;;15.60;99.90;;;;;;4952569;28;20381;-88
2023/09/28 05:59:49;;;;;;;9.85;5.75;;;15.70;99.90;;;;;;4936223;29;20063;-89
2023/09/28 06:02:15;;;;;;;11.43;6.47;;;15.60;99.90;;;;;;4935286;29;20369;-88
2023/09/28 06:04:41;;;;;;;9.73;6.00;;;15.70;99.90;;;;;;4931137;28;20039;-88
2023/09/28 06:07:07;;;;;;;11.10;6.05;;;15.60;99.90;;;;;;4935155;29;21310;-88
2023/09/28 06:09:33;;;;;;;11.70;6.07;;;15.60;99.90;;;;;;4932388;29;20106;-88
2023/09/28 06:12:00;;;;;;;13.82;6.10;;;15.60;99.90;;;;;;4930247;29;20484;-88
2023/09/28 06:14:25;;;;;;;9.90;5.47;;;15.60;99.90;;;;;;4946415;28;20503;-88
2023/09/28 06:16:51;;;;;;;10.73;5.80;;;15.60;99.90;;;;;;4935439;29;20080;-88
2023/09/28 06:19:16;;;;;;;9.70;5.07;;;15.60;99.90;;;;;;4946309;28;20114;-89
2023/09/28 06:21:42;;;;;;;9.45;5.00;;;15.60;99.90;;;;;;4928220;29;20032;-88
2023/09/28 06:24:07;;;;;;;14.52;5.43;;;15.60;99.90;;;;;;4936105;29;20040;-88
2023/09/28 06:26:33;;;;;;;10.60;5.22;;;15.60;99.90;;;;;;4933460;29;20054;-87
2023/09/28 06:28:59;;;;;;;11.98;4.97;;;15.60;99.90;;;;;;4923082;29;20389;-86
2023/09/28 06:31:25;;;;;;;15.05;4.63;;;15.70;99.90;;;;;;4936590;28;20117;-88
2023/09/28 06:33:50;;;;;;;12.85;4.57;;;15.70;99.90;;;;;;4940168;29;20182;-86
2023/09/28 06:36:18;;;;;;;12.52;4.55;;;15.70;99.90;;;;;;4938567;28;20028;-87
2023/09/28 06:38:43;;;;;;;12.95;4.70;;;15.70;99.90;;;;;;4948256;29;20028;-86
2023/09/28 06:41:09;;;;;;;10.77;4.20;;;15.80;99.90;;;;;;4933445;29;20039;-86
2023/09/28 06:43:37;;;;;;;14.00;4.85;;;15.70;99.90;;;;;;4933735;29;20516;-86
2023/09/28 06:46:03;;;;;;;13.05;5.32;;;15.90;99.90;;;;;;4935013;29;20059;-85
2023/09/28 06:48:29;;;;;;;11.82;4.38;;;15.80;99.90;;;;;;4940185;29;20083;-86
2023/09/28 06:50:57;;;;;;;11.00;4.90;;;15.80;99.90;;;;;;4924761;29;20032;-85
2023/09/28 06:53:24;;;;;;;12.63;4.88;;;15.90;99.90;;;;;;4934977;29;20032;-86
2023/09/28 06:55:50;;;;;;;15.02;4.28;;;16.00;99.90;;;;;;4935487;29;20028;-85
2023/09/28 06:58:17;;;;;;;12.07;4.53;;;16.00;99.90;;;;;;4932650;28;20373;-85
2023/09/28 07:00:43;;;;;;;14.25;5.30;;;16.10;99.90;;;;;;4931877;28;20099;-87
2023/09/28 07:03:09;;;;;;;15.10;3.92;;;16.20;99.90;;;;;;4935299;29;20059;-85
2023/09/28 07:05:35;;;;;;;14.10;4.47;;;16.20;99.90;;;;;;4928489;29;20066;-86
2023/09/28 07:08:05;;;;;;;17.52;3.60;;;16.30;99.90;;;;;;4946829;28;20036;-86
2023/09/28 07:10:33;;;;;;;13.95;4.22;;;16.40;99.90;;;;;;4941691;28;20028;-86
2023/09/28 07:13:05;;;;;;;15.07;4.22;;;16.40;99.90;;;;;;4946186;29;20136;-86
2023/09/28 07:15:36;;;;;;;14.65;3.03;;;16.50;99.90;;;;;;4935520;29;20472;-86
2023/09/28 07:18:02;;;;;;;15.80;3.88;;;16.60;99.90;;;;;;4937589;28;20142;-86
2023/09/28 07:20:28;;;;;;;14.20;2.65;;;16.60;99.90;;;;;;4928726;29;20039;-87
2023/09/28 07:22:54;;;;;;;18.17;3.85;;;16.70;99.90;;;;;;4943022;28;20757;-87
2023/09/28 07:25:20;;;;;;;14.57;3.22;;;16.80;99.90;;;;;;4944955;28;20084;-86
2023/09/28 07:27:50;;;;;;;13.35;2.72;;;16.80;99.90;;;;;;4949878;29;20023;-86
2023/09/28 07:30:21;;;;;;;19.83;3.53;;;16.90;99.90;;;;;;4929967;29;20059;-86
2023/09/28 07:32:47;;;;;;;23.50;3.53;;;17.00;99.90;;;;;;4935468;29;20043;-86
2023/09/28 07:35:17;;;;;;;14.25;4.07;;;17.10;99.90;;;;;;4934474;29;21099;-87
2023/09/28 07:37:43;;;;;;;19.05;2.90;;;17.20;99.90;;;;;;4931621;29;20495;-86
2023/09/28 07:40:12;;;;;;;17.83;3.30;;;17.30;99.90;;;;;;4929458;29;20023;-87
2023/09/28 07:42:43;;;;;;;23.23;3.65;;;17.40;99.90;;;;;;4950087;29;20027;-86
2023/09/28 07:45:09;;;;;;;20.95;3.05;;;17.40;99.90;;;;;;4929042;29;20044;-86
2023/09/28 07:47:34;;;;;;;18.15;2.88;;;17.40;99.90;;;;;;4920957;29;20024;-87
2023/09/28 07:50:00;;;;;;;15.68;2.47;;;17.40;99.90;;;;;;4929098;29;20469;-86
2023/09/28 07:52:26;;;;;;;18.40;2.70;;;17.50;99.90;;;;;;4933033;29;20095;-87
2023/09/28 07:54:51;;;;;;;16.50;2.30;;;17.60;99.90;;;;;;4932381;29;20043;-86
2023/09/28 07:57:17;;;;;;;24.60;2.60;;;17.70;99.90;;;;;;4933607;29;20388;-87
2023/09/28 07:59:43;;;;;;;21.55;2.30;;;17.70;99.90;;;;;;4946348;29;20125;-85
2023/09/28 08:02:11;;;;;;;17.50;2.38;;;17.80;99.90;;;;;;4934110;29;20039;-86
2023/09/28 08:04:38;;;;;;;20.00;3.15;;;17.80;99.90;;;;;;4942382;28;20046;-86
2023/09/28 08:07:04;;;;;;;23.23;2.58;;;17.90;99.90;;;;;;4928798;29;20031;-86
2023/09/28 08:09:30;;;;;;;22.05;2.53;;;18.00;99.90;;;;;;4948245;28;20031;-86
2023/09/28 08:11:56;;;;;;;18.15;2.20;;;18.10;99.90;;;;;;4948929;28;20036;-88
2023/09/28 08:14:22;;;;;;;19.00;2.67;;;18.10;99.90;;;;;;4920097;29;20052;-87
2023/09/28 08:16:48;;;;;;;20.45;2.83;;;18.20;99.90;;;;;;4937649;28;20044;-86
2023/09/28 08:19:14;;;;;;;22.83;2.33;;;18.20;99.90;;;;;;4932815;29;20118;-86
2023/09/28 08:21:40;;;;;;;21.48;3.17;;;18.40;99.90;;;;;;4933507;28;20051;-86
2023/09/28 08:24:07;;;;;;;18.88;2.15;;;18.50;99.90;;;;;;4934416;29;20035;-86
2023/09/28 08:26:33;;;;;;;18.10;2.38;;;18.60;99.90;;;;;;4935106;29;20022;-86
2023/09/28 08:28:59;;;;;;;22.27;3.15;;;18.70;99.90;;;;;;4949134;28;20094;-86
2023/09/28 08:31:27;;;;;;;17.70;2.15;;;18.90;99.90;;;;;;4934291;29;20365;-86
2023/09/28 08:33:52;;;;;;;20.23;3.17;;;19.00;99.90;;;;;;4931794;29;20067;-86
2023/09/28 08:36:18;;;;;;;12.75;2.30;;;19.00;99.90;;;;;;4948351;28;20074;-86
2023/09/28 08:38:44;;;;;;;14.73;2.58;;;19.00;99.90;;;;;;4933611;29;20027;-86
2023/09/28 08:41:10;;;;;;;15.88;2.28;;;19.00;99.90;;;;;;4930818;29;20035;-87
2023/09/28 08:43:49;;;;;;;15.93;2.22;;;19.00;99.90;;;;;;4934623;29;20038;-87
2023/09/28 08:46:14;;;;;;;15.88;2.13;;;19.00;99.90;;;;;;4931671;29;20024;-86
2023/09/28 08:48:45;;;;;;;19.98;2.60;;;18.90;99.90;;;;;;4931645;29;20040;-86
2023/09/28 08:51:11;;;;;;;17.38;2.00;;;19.00;99.90;;;;;;4947240;28;20032;-86
2023/09/28 08:53:40;;;;;;;28.15;3.97;;;19.00;99.90;;;;;;4932473;29;20024;-86
2023/09/28 08:56:07;;;;;;;24.42;2.72;;;19.00;99.90;;;;;;4932490;29;20620;-86
2023/09/28 08:58:34;;;;;;;20.58;2.92;;;19.00;99.90;;;;;;4933354;29;20035;-86
2023/09/28 09:01:01;;;;;;;18.83;2.13;;;18.90;99.90;;;;;;4935901;29;20574;-86
2023/09/28 09:03:27;;;;;;;19.40;2.97;;;18.90;99.90;;;;;;4936217;29;20453;-86
2023/09/28 09:05:56;;;;;;;27.55;2.95;;;18.90;99.90;;;;;;4936682;29;20035;-86
2023/09/28 09:08:23;;;;;;;26.13;2.88;;;18.90;99.90;;;;;;4957367;28;20032;-86
2023/09/28 09:10:52;;;;;;;19.63;3.53;;;18.90;99.90;;;;;;4936068;29;20031;-86
2023/09/28 09:13:21;;;;;;;20.10;3.13;;;18.90;99.90;;;;;;4951732;28;20118;-87
2023/09/28 09:15:47;;;;;;;20.08;2.78;;;19.00;99.90;;;;;;4932561;29;20020;-87
2023/09/28 09:18:18;;;;;;;17.58;2.15;;;19.10;99.90;;;;;;4933073;29;20389;-86
2023/09/28 09:20:46;;;;;;;19.67;2.58;;;19.10;99.90;;;;;;4947437;29;20028;-90
2023/09/28 09:23:13;;;;;;;16.85;2.40;;;19.10;99.90;;;;;;4937417;29;20050;-90
2023/09/28 09:25:44;;;;;;;17.95;2.08;;;19.10;99.90;;;;;;4937210;29;20035;-89
2023/09/28 09:28:12;;;;;;;25.15;2.95;;;19.10;99.90;;;;;;4923396;29;20063;-86
2023/09/28 09:30:37;;;;;;;15.98;2.67;;;19.10;99.90;;;;;;4927368;29;20540;-86
2023/09/28 09:33:06;;;;;;;19.55;2.55;;;19.20;99.90;;;;;;4933735;29;20031;-85
2023/09/28 09:35:38;;;;;;;16.92;2.13;;;19.20;99.90;;;;;;4932848;29;20114;-86
2023/09/28 09:38:04;;;;;;;18.10;1.98;;;19.40;99.90;;;;;;4921855;29;20028;-84
2023/09/28 09:40:31;;;;;;;14.52;1.52;;;19.50;99.90;;;;;;4948149;28;20031;-85
2023/09/28 09:43:06;;;;;;;16.67;2.97;;;19.60;99.90;;;;;;4927706;28;20036;-85
2023/09/28 09:45:31;;;;;;;23.17;2.33;;;19.70;99.90;;;;;;4931310;29;20035;-86
2023/09/28 09:47:57;;;;;;;13.75;1.75;;;19.70;99.90;;;;;;4934945;29;20030;-85
2023/09/28 09:50:24;;;;;;;20.08;2.95;;;19.60;99.90;;;;;;4938276;28;20031;-86
2023/09/28 09:52:51;;;;;;;18.23;2.22;;;19.60;99.90;;;;;;4935651;29;20028;-87
2023/09/28 09:55:17;;;;;;;13.52;2.13;;;19.60;99.90;;;;;;4935123;29;20031;-86
2023/09/28 09:57:46;;;;;;;14.35;1.90;;;19.70;99.90;;;;;;4935563;29;20020;-86
2023/09/28 10:00:15;;;;;;;19.33;2.28;;;19.70;99.90;;;;;;4934967;29;20128;-87
2023/09/28 10:02:43;;;;;;;15.73;2.30;;;19.80;99.90;;;;;;4925606;29;20098;-86
2023/09/28 10:05:12;;;;;;;18.65;3.00;;;19.90;99.90;;;;;;4947484;29;20586;-86
2023/09/28 10:07:39;;;;;;;25.50;3.08;;;19.90;99.90;;;;;;4930899;29;20552;-86
2023/09/28 10:10:05;;;;;;;17.83;2.53;;;20.00;99.90;;;;;;4934753;29;20114;-87
2023/09/28 10:12:31;;;;;;;15.63;2.25;;;20.10;99.90;;;;;;4933013;29;20480;-87
2023/09/28 10:14:58;;;;;;;15.43;1.85;;;20.20;99.90;;;;;;4937496;29;20032;-88
2023/09/28 10:17:28;;;;;;;20.15;3.08;;;20.20;99.90;;;;;;4955228;28;20051;-87
2023/09/28 10:19:59;;;;;;;11.73;1.67;;;20.20;99.90;;;;;;4938331;29;20559;-87
2023/09/28 10:22:25;;;;;;;17.50;2.58;;;20.30;99.90;;;;;;4937637;29;20441;-87
2023/09/28 10:24:50;;;;;;;16.23;2.05;;;20.40;99.90;;;;;;4916947;29;20035;-87
2023/09/28 10:27:17;;;;;;;17.52;2.88;;;20.50;99.90;;;;;;4934931;29;20043;-87
2023/09/28 10:29:43;;;;;;;21.38;2.17;;;20.60;99.90;;;;;;4947350;28;20051;-88
2023/09/28 10:32:25;;;;;;;23.90;2.65;;;20.60;99.90;;;;;;4934071;29;20035;-88
2023/09/28 10:35:12;;;;;;;14.68;1.90;;;20.60;99.90;;;;;;4922242;29;20552;-88
2023/09/28 10:37:38;;;;;;;13.45;1.88;;;20.60;99.90;;;;;;4930047;29;20326;-89
2023/09/28 10:40:04;;;;;;;23.08;2.85;;;20.50;99.90;;;;;;4931834;29;20481;-89
2023/09/28 10:42:30;;;;;;;15.05;1.88;;;20.60;99.90;;;;;;4916757;29;20055;-88
2023/09/28 10:44:56;;;;;;;18.05;2.65;;;20.70;99.90;;;;;;4925781;29;20066;-89
2023/09/28 10:47:23;;;;;;;16.98;2.55;;;20.80;99.90;;;;;;4946324;29;20027;-89
2023/09/28 10:50:01;;;;;;;18.27;2.20;;;20.90;99.90;;;;;;4934296;29;20036;-90
2023/09/28 10:52:27;;;;;;;21.02;2.53;;;21.00;99.90;;;;;;4932502;29;20033;-87
2023/09/28 10:54:54;;;;;;;17.05;2.63;;;21.30;99.90;;;;;;4947775;29;20051;-85
2023/09/28 10:57:31;;;;;;;15.95;2.45;;;21.50;99.90;;;;;;4931960;29;20027;-84
2023/09/28 11:00:00;;;;;;;18.00;2.08;;;21.70;99.90;;;;;;4934124;29;20071;-89
2023/09/28 11:02:26;;;;;;;20.75;2.88;;;21.80;99.90;;;;;;4924591;29;20025;-91
2023/09/28 11:04:51;;;;;;;15.85;2.25;;;21.80;99.90;;;;;;4941548;29;20043;-90
2023/09/28 11:07:17;;;;;;;18.63;2.80;;;21.90;99.90;;;;;;4928902;29;20035;-88
2023/09/28 11:09:43;;;;;;;14.60;1.95;;;21.90;99.90;;;;;;4935090;29;20032;-87
2023/09/28 11:12:09;;;;;;;14.02;2.67;;;21.90;99.90;;;;;;4941407;29;20036;-88
2023/09/28 11:14:36;;;;;;;18.80;2.65;;;21.70;99.90;;;;;;4927033;29;20417;-88
2023/09/28 11:17:03;;;;;;;17.88;2.63;;;21.70;99.90;;;;;;4942577;29;20643;-88
2023/09/28 11:19:29;;;;;;;20.70;2.30;;;21.80;99.90;;;;;;4937498;29;20034;-89
2023/09/28 11:21:54;;;;;;;18.02;2.00;;;21.80;99.90;;;;;;4936736;29;20119;-89
2023/09/28 11:24:20;;;;;;;18.65;2.47;;;21.80;99.90;;;;;;4925339;29;20054;-89
2023/09/28 11:26:46;;;;;;;17.70;2.47;;;21.80;99.90;;;;;;4945040;29;20123;-90
2023/09/28 11:29:13;;;;;;;15.52;1.95;;;21.80;99.90;;;;;;4934033;29;20531;-89
2023/09/28 11:31:48;;;;;;;15.48;1.75;;;21.80;99.90;;;;;;4925524;29;20035;-87
2023/09/28 11:34:14;;;;;;;11.25;1.98;;;21.70;99.90;;;;;;4952921;28;20032;-89
2023/09/28 11:36:40;;;;;;;14.75;3.05;;;21.60;99.90;;;;;;4932040;29;20028;-89
2023/09/28 11:39:06;;;;;;;17.65;2.03;;;21.60;99.90;;;;;;4932973;29;20016;-88
2023/09/28 11:41:31;;;;;;;11.73;1.83;;;21.80;99.90;;;;;;4934330;29;20082;-88
2023/09/28 11:43:57;;;;;;;23.08;2.55;;;21.90;99.90;;;;;;4933742;29;20112;-89
2023/09/28 11:46:33;;;;;;;17.90;2.00;;;21.90;99.90;;;;;;4931228;29;20063;-89
2023/09/28 11:49:26;;;;;;;18.88;2.03;;;21.90;99.90;;;;;;4926531;29;20571;-88
2023/09/28 11:51:52;;;;;;;15.80;1.73;;;21.80;99.90;;;;;;4935071;28;20044;-88
2023/09/28 11:54:20;;;;;;;16.35;2.40;;;21.70;99.90;;;;;;4943336;29;20562;-87
2023/09/28 11:56:46;;;;;;;17.40;2.33;;;21.60;99.90;;;;;;4928226;29;20131;-86
2023/09/28 11:59:15;;;;;;;14.27;1.65;;;21.50;99.90;;;;;;4942800;29;20447;-87
2023/09/28 12:01:44;;;;;;;13.73;2.03;;;21.50;99.90;;;;;;4938875;29;20031;-86
2023/09/28 12:04:10;;;;;;;17.45;1.73;;;21.60;99.90;;;;;;4946849;29;20449;-87
2023/09/28 12:06:37;;;;;;;17.48;1.73;;;21.60;99.90;;;;;;4931709;29;20127;-87
2023/09/28 12:09:05;;;;;;;12.88;2.03;;;21.60;99.90;;;;;;4933973;29;20640;-87
2023/09/28 12:11:31;;;;;;;12.05;1.40;;;21.60;99.90;;;;;;4933846;29;20052;-87
2023/09/28 12:13:59;;;;;;;12.98;1.58;;;21.60;99.90;;;;;;4917597;29;20032;-87
2023/09/28 12:16:25;;;;;;;13.20;2.05;;;21.50;99.90;;;;;;4934874;29;20039;-87
2023/09/28 12:18:51;;;;;;;14.77;1.58;;;21.50;99.90;;;;;;4932967;29;20378;-88
2023/09/28 12:21:17;;;;;;;18.10;2.42;;;21.60;99.90;;;;;;4941702;29;20044;-87
2023/09/28 12:23:42;;;;;;;13.95;1.38;;;21.70;99.90;;;;;;4949729;28;20039;-87
2023/09/28 12:26:09;;;;;;;9.73;1.38;;;21.80;99.90;;;;;;4933688;28;20118;-86
2023/09/28 12:28:36;;;;;;;17.33;2.10;;;21.80;99.90;;;;;;4946889;29;20393;-87
2023/09/28 12:31:03;;;;;;;14.35;2.03;;;21.80;99.90;;;;;;4934828;29;20476;-87
2023/09/28 12:33:29;;;;;;;16.83;2.28;;;21.80;99.90;;;;;;4939918;28;20023;-87
2023/09/28 12:35:57;;;;;;;15.60;2.10;;;21.70;99.90;;;;;;4936991;29;20027;-87
2023/09/28 12:38:23;;;;;;;10.52;1.73;;;21.80;99.90;;;;;;4941426;29;20034;-86
2023/09/28 12:40:49;;;;;;;14.13;2.42;;;21.90;99.90;;;;;;4932733;28;20028;-86